sensor_id;sensor_type;location;lat;lon;timestamp;P1;durP1;ratioP1;P2;durP2;ratioP2
73100;SDS011;61288;53.446;-2.266;2023-03-01T00:01:48;6.35;;;1.30;;
73100;SDS011;61288;53.446;-2.266;2023-03-01T00:04:14;6.70;;;1.80;;
73100;SDS011;61288;53.446;-2.266;2023-03-01T00:06:39;3.58;;;1.45;;
73100;SDS011;61288;53.446;-2.266;2023-03-01T00:09:05;6.72;;;1.25;;
73100;SDS011;61288;53.446;-2.266;2023-03-01T00:11:31;4.30;;;1.40;;
73100;SDS011;61288;53.446;-2.266;2023-03-01T00:13:59;5.40;;;1.65;;
73100;SDS011;61288;53.446;-2.266;2023-03-01T00:16:27;4.88;;;1.20;;
73100;SDS011;61288;53.446;-2.266;2023-03-01T00:18:55;4.25;;;1.13;;
73100;SDS011;61288;53.446;-2.266;2023-03-01T00:21:21;3.88;;;1.33;;
73100;SDS011;61288;53.446;-2.266;2023-03-01T00:23:49;5.15;;;1.85;;
73100;SDS011;61288;53.446;-2.266;2023-03-01T00:26:15;4.07;;;1.40;;
73100;SDS011;61288;53.446;-2.266;2023-03-01T00:28:45;4.13;;;1.20;;
73100;SDS011;61288;53.446;-2.266;2023-03-01T00:31:15;4.95;;;1.42;;
73100;SDS011;61288;53.446;-2.266;2023-03-01T00:33:43;6.32;;;1.95;;
73100;SDS011;61288;53.446;-2.266;2023-03-01T00:36:10;4.85;;;1.58;;
73100;SDS011;61288;53.446;-2.266;2023-03-01T00:38:38;10.63;;;1.95;;
73100;SDS011;61288;53.446;-2.266;2023-03-01T00:41:05;8.30;;;1.90;;
73100;SDS011;61288;53.446;-2.266;2023-03-01T00:43:32;7.95;;;2.03;;
73100;SDS011;61288;53.446;-2.266;2023-03-01T00:46:04;5.88;;;1.67;;
73100;SDS011;61288;53.446;-2.266;2023-03-01T00:48:32;5.70;;;2.00;;
73100;SDS011;61288;53.446;-2.266;2023-03-01T00:51:09;4.50;;;1.70;;
73100;SDS011;61288;53.446;-2.266;2023-03-01T00:53:42;6.15;;;1.67;;
73100;SDS011;61288;53.446;-2.266;2023-03-01T00:56:09;5.72;;;1.40;;
73100;SDS011;61288;53.446;-2.266;2023-03-01T00:58:36;8.60;;;2.00;;
73100;SDS011;61288;53.446;-2.266;2023-03-01T01:01:17;5.60;;;1.40;;
73100;SDS011;61288;53.446;-2.266;2023-03-01T01:03:49;5.65;;;1.50;;
73100;SDS011;61288;53.446;-2.266;2023-03-01T01:06:21;5.50;;;1.50;;
73100;SDS011;61288;53.446;-2.266;2023-03-01T01:08:48;6.05;;;1.60;;
73100;SDS011;61288;53.446;-2.266;2023-03-01T01:11:15;3.50;;;1.40;;
73100;SDS011;61288;53.446;-2.266;2023-03-01T01:13:43;6.53;;;1.52;;
73100;SDS011;61288;53.446;-2.266;2023-03-01T01:16:09;5.47;;;1.80;;
73100;SDS011;61288;53.446;-2.266;2023-03-01T01:18:35;5.20;;;1.60;;
73100;SDS011;61288;53.446;-2.266;2023-03-01T01:21:05;5.95;;;1.52;;
73100;SDS011;61288;53.446;-2.266;2023-03-01T01:23:31;5.38;;;1.48;;
73100;SDS011;61288;53.446;-2.266;2023-03-01T01:25:57;3.10;;;1.25;;
73100;SDS011;61288;53.446;-2.266;2023-03-01T01:28:22;3.97;;;1.60;;
73100;SDS011;61288;53.446;-2.266;2023-03-01T01:30:48;4.63;;;1.30;;
73100;SDS011;61288;53.446;-2.266;2023-03-01T01:33:13;3.63;;;1.10;;
73100;SDS011;61288;53.446;-2.266;2023-03-01T01:35:39;2.53;;;0.95;;
73100;SDS011;61288;53.446;-2.266;2023-03-01T01:38:04;2.72;;;0.90;;
73100;SDS011;61288;53.446;-2.266;2023-03-01T01:40:30;2.83;;;1.02;;
73100;SDS011;61288;53.446;-2.266;2023-03-01T01:42:55;3.80;;;0.82;;
73100;SDS011;61288;53.446;-2.266;2023-03-01T01:45:29;2.95;;;1.20;;
73100;SDS011;61288;53.446;-2.266;2023-03-01T01:47:58;1.08;;;0.95;;
73100;SDS011;61288;53.446;-2.266;2023-03-01T01:50:28;4.25;;;1.00;;
73100;SDS011;61288;53.446;-2.266;2023-03-01T01:53:03;2.70;;;1.00;;
73100;SDS011;61288;53.446;-2.266;2023-03-01T01:55:34;2.25;;;0.95;;
73100;SDS011;61288;53.446;-2.266;2023-03-01T01:58:03;3.42;;;1.00;;
73100;SDS011;61288;53.446;-2.266;2023-03-01T02:00:31;3.05;;;1.08;;
73100;SDS011;61288;53.446;-2.266;2023-03-01T02:02:58;3.45;;;1.00;;
73100;SDS011;61288;53.446;-2.266;2023-03-01T02:05:37;2.42;;;1.00;;
73100;SDS011;61288;53.446;-2.266;2023-03-01T02:08:08;2.58;;;0.95;;
73100;SDS011;61288;53.446;-2.266;2023-03-01T02:10:37;2.55;;;1.00;;
73100;SDS011;61288;53.446;-2.266;2023-03-01T02:13:04;4.63;;;1.10;;
73100;SDS011;61288;53.446;-2.266;2023-03-01T02:15:33;1.55;;;0.90;;
73100;SDS011;61288;53.446;-2.266;2023-03-01T02:18:01;2.25;;;0.90;;
73100;SDS011;61288;53.446;-2.266;2023-03-01T02:23:30;2.00;;;0.88;;
73100;SDS011;61288;53.446;-2.266;2023-03-01T02:28:38;2.30;;;0.90;;
73100;SDS011;61288;53.446;-2.266;2023-03-01T02:31:08;2.17;;;0.80;;
73100;SDS011;61288;53.446;-2.266;2023-03-01T02:33:54;1.05;;;0.43;;
73100;SDS011;61288;53.446;-2.266;2023-03-01T02:37:07;5.03;;;1.10;;
73100;SDS011;61288;53.446;-2.266;2023-03-01T02:39:12;3.50;;;1.10;;
73100;SDS011;61288;53.446;-2.266;2023-03-01T02:41:46;2.42;;;0.75;;
73100;SDS011;61288;53.446;-2.266;2023-03-01T02:46:43;3.58;;;0.90;;
73100;SDS011;61288;53.446;-2.266;2023-03-01T02:49:20;2.95;;;1.10;;
73100;SDS011;61288;53.446;-2.266;2023-03-01T02:51:54;3.00;;;1.15;;
73100;SDS011;61288;53.446;-2.266;2023-03-01T02:54:24;3.53;;;1.00;;
73100;SDS011;61288;53.446;-2.266;2023-03-01T02:56:59;4.25;;;1.20;;
73100;SDS011;61288;53.446;-2.266;2023-03-01T02:59:26;4.43;;;1.10;;
73100;SDS011;61288;53.446;-2.266;2023-03-01T03:01:56;1.52;;;0.98;;
73100;SDS011;61288;53.446;-2.266;2023-03-01T03:04:21;2.95;;;1.00;;
73100;SDS011;61288;53.446;-2.266;2023-03-01T03:06:48;4.25;;;1.20;;
73100;SDS011;61288;53.446;-2.266;2023-03-01T03:09:15;2.15;;;0.95;;
73100;SDS011;61288;53.446;-2.266;2023-03-01T03:11:42;1.85;;;0.73;;
73100;SDS011;61288;53.446;-2.266;2023-03-01T03:14:12;2.53;;;1.05;;
73100;SDS011;61288;53.446;-2.266;2023-03-01T03:16:43;3.35;;;1.33;;
73100;SDS011;61288;53.446;-2.266;2023-03-01T03:19:11;4.80;;;1.20;;
73100;SDS011;61288;53.446;-2.266;2023-03-01T03:21:36;5.45;;;1.20;;
73100;SDS011;61288;53.446;-2.266;2023-03-01T03:24:02;4.30;;;1.20;;
73100;SDS011;61288;53.446;-2.266;2023-03-01T03:26:28;2.42;;;1.20;;
73100;SDS011;61288;53.446;-2.266;2023-03-01T03:28:54;5.30;;;1.30;;
73100;SDS011;61288;53.446;-2.266;2023-03-01T03:31:20;5.75;;;1.30;;
73100;SDS011;61288;53.446;-2.266;2023-03-01T03:33:45;3.78;;;1.30;;
73100;SDS011;61288;53.446;-2.266;2023-03-01T03:36:18;3.65;;;1.40;;
73100;SDS011;61288;53.446;-2.266;2023-03-01T03:38:46;4.45;;;1.50;;
73100;SDS011;61288;53.446;-2.266;2023-03-01T03:41:13;3.65;;;1.40;;
73100;SDS011;61288;53.446;-2.266;2023-03-01T03:43:41;3.42;;;1.27;;
73100;SDS011;61288;53.446;-2.266;2023-03-01T03:46:08;3.95;;;1.40;;
73100;SDS011;61288;53.446;-2.266;2023-03-01T03:48:36;2.95;;;1.20;;
73100;SDS011;61288;53.446;-2.266;2023-03-01T03:51:05;2.20;;;1.10;;
73100;SDS011;61288;53.446;-2.266;2023-03-01T03:53:31;4.20;;;1.20;;
73100;SDS011;61288;53.446;-2.266;2023-03-01T03:55:57;4.68;;;1.38;;
73100;SDS011;61288;53.446;-2.266;2023-03-01T03:58:23;2.15;;;1.27;;
73100;SDS011;61288;53.446;-2.266;2023-03-01T04:00:52;2.67;;;1.00;;
73100;SDS011;61288;53.446;-2.266;2023-03-01T04:03:25;3.78;;;1.30;;
73100;SDS011;61288;53.446;-2.266;2023-03-01T04:05:52;1.67;;;0.93;;
73100;SDS011;61288;53.446;-2.266;2023-03-01T04:08:18;3.65;;;0.90;;
73100;SDS011;61288;53.446;-2.266;2023-03-01T04:10:46;1.23;;;0.82;;
73100;SDS011;61288;53.446;-2.266;2023-03-01T04:13:16;2.65;;;1.27;;
73100;SDS011;61288;53.446;-2.266;2023-03-01T04:15:50;1.55;;;0.70;;
73100;SDS011;61288;53.446;-2.266;2023-03-01T04:18:17;3.33;;;0.98;;
73100;SDS011;61288;53.446;-2.266;2023-03-01T04:20:48;2.75;;;0.90;;
73100;SDS011;61288;53.446;-2.266;2023-03-01T04:23:18;2.92;;;1.00;;
73100;SDS011;61288;53.446;-2.266;2023-03-01T04:28:29;1.77;;;0.80;;
73100;SDS011;61288;53.446;-2.266;2023-03-01T04:31:01;3.70;;;1.10;;
73100;SDS011;61288;53.446;-2.266;2023-03-01T04:33:43;7.60;;;1.27;;
73100;SDS011;61288;53.446;-2.266;2023-03-01T04:36:09;3.80;;;1.02;;
73100;SDS011;61288;53.446;-2.266;2023-03-01T04:38:35;2.83;;;1.15;;
73100;SDS011;61288;53.446;-2.266;2023-03-01T04:41:03;3.50;;;1.00;;
73100;SDS011;61288;53.446;-2.266;2023-03-01T04:43:30;1.90;;;0.95;;
73100;SDS011;61288;53.446;-2.266;2023-03-01T04:46:01;1.80;;;0.80;;
73100;SDS011;61288;53.446;-2.266;2023-03-01T04:48:29;2.70;;;1.10;;
73100;SDS011;61288;53.446;-2.266;2023-03-01T04:50:56;3.17;;;1.30;;
73100;SDS011;61288;53.446;-2.266;2023-03-01T04:53:23;2.47;;;1.08;;
73100;SDS011;61288;53.446;-2.266;2023-03-01T04:55:50;3.78;;;1.15;;
73100;SDS011;61288;53.446;-2.266;2023-03-01T04:58:15;1.05;;;0.82;;
73100;SDS011;61288;53.446;-2.266;2023-03-01T05:00:41;3.42;;;1.00;;
73100;SDS011;61288;53.446;-2.266;2023-03-01T05:03:07;1.38;;;0.90;;
73100;SDS011;61288;53.446;-2.266;2023-03-01T05:05:35;2.58;;;0.85;;
73100;SDS011;61288;53.446;-2.266;2023-03-01T05:10:34;1.77;;;1.00;;
73100;SDS011;61288;53.446;-2.266;2023-03-01T05:13:01;5.00;;;1.15;;
73100;SDS011;61288;53.446;-2.266;2023-03-01T05:15:28;1.65;;;1.00;;
73100;SDS011;61288;53.446;-2.266;2023-03-01T05:17:55;3.83;;;1.10;;
73100;SDS011;61288;53.446;-2.266;2023-03-01T05:20:27;2.60;;;1.10;;
73100;SDS011;61288;53.446;-2.266;2023-03-01T05:22:58;2.83;;;0.95;;
73100;SDS011;61288;53.446;-2.266;2023-03-01T05:25:25;3.25;;;1.00;;
73100;SDS011;61288;53.446;-2.266;2023-03-01T05:27:52;2.33;;;0.90;;
73100;SDS011;61288;53.446;-2.266;2023-03-01T05:33:13;3.55;;;1.10;;
73100;SDS011;61288;53.446;-2.266;2023-03-01T05:35:40;2.15;;;1.13;;
73100;SDS011;61288;53.446;-2.266;2023-03-01T05:38:07;2.92;;;0.88;;
73100;SDS011;61288;53.446;-2.266;2023-03-01T05:40:33;2.13;;;1.00;;
73100;SDS011;61288;53.446;-2.266;2023-03-01T05:42:59;3.28;;;1.20;;
73100;SDS011;61288;53.446;-2.266;2023-03-01T05:45:26;3.80;;;1.02;;
73100;SDS011;61288;53.446;-2.266;2023-03-01T05:47:52;3.97;;;0.90;;
73100;SDS011;61288;53.446;-2.266;2023-03-01T05:50:21;2.92;;;0.93;;
73100;SDS011;61288;53.446;-2.266;2023-03-01T05:55:18;2.00;;;0.82;;
73100;SDS011;61288;53.446;-2.266;2023-03-01T05:57:45;1.42;;;0.68;;
73100;SDS011;61288;53.446;-2.266;2023-03-01T06:00:11;2.70;;;1.30;;
73100;SDS011;61288;53.446;-2.266;2023-03-01T06:02:38;1.95;;;1.08;;
73100;SDS011;61288;53.446;-2.266;2023-03-01T06:05:05;1.75;;;1.00;;
73100;SDS011;61288;53.446;-2.266;2023-03-01T06:07:32;1.73;;;0.95;;
73100;SDS011;61288;53.446;-2.266;2023-03-01T06:10:02;1.30;;;0.75;;
73100;SDS011;61288;53.446;-2.266;2023-03-01T06:12:32;2.38;;;0.95;;
73100;SDS011;61288;53.446;-2.266;2023-03-01T06:14:59;2.20;;;1.00;;
73100;SDS011;61288;53.446;-2.266;2023-03-01T06:17:24;2.05;;;1.08;;
73100;SDS011;61288;53.446;-2.266;2023-03-01T06:19:50;3.67;;;0.95;;
73100;SDS011;61288;53.446;-2.266;2023-03-01T06:22:15;1.45;;;0.77;;
73100;SDS011;61288;53.446;-2.266;2023-03-01T06:24:41;3.63;;;0.95;;
73100;SDS011;61288;53.446;-2.266;2023-03-01T06:27:06;3.55;;;0.95;;
73100;SDS011;61288;53.446;-2.266;2023-03-01T06:29:32;2.25;;;0.98;;
73100;SDS011;61288;53.446;-2.266;2023-03-01T06:31:58;2.97;;;1.30;;
73100;SDS011;61288;53.446;-2.266;2023-03-01T06:34:23;1.88;;;0.82;;
73100;SDS011;61288;53.446;-2.266;2023-03-01T06:36:50;7.10;;;1.10;;
73100;SDS011;61288;53.446;-2.266;2023-03-01T06:39:16;4.30;;;1.00;;
73100;SDS011;61288;53.446;-2.266;2023-03-01T06:41:42;3.55;;;0.82;;
73100;SDS011;61288;53.446;-2.266;2023-03-01T06:44:08;2.28;;;1.10;;
73100;SDS011;61288;53.446;-2.266;2023-03-01T06:46:34;3.78;;;1.10;;
73100;SDS011;61288;53.446;-2.266;2023-03-01T06:48:59;2.28;;;0.77;;
73100;SDS011;61288;53.446;-2.266;2023-03-01T06:51:25;1.90;;;0.70;;
73100;SDS011;61288;53.446;-2.266;2023-03-01T06:53:51;3.30;;;1.20;;
73100;SDS011;61288;53.446;-2.266;2023-03-01T06:56:16;4.72;;;1.38;;
73100;SDS011;61288;53.446;-2.266;2023-03-01T06:58:42;3.10;;;1.20;;
73100;SDS011;61288;53.446;-2.266;2023-03-01T07:01:07;5.72;;;1.48;;
73100;SDS011;61288;53.446;-2.266;2023-03-01T07:03:35;3.40;;;1.35;;
73100;SDS011;61288;53.446;-2.266;2023-03-01T07:06:01;3.38;;;1.00;;
73100;SDS011;61288;53.446;-2.266;2023-03-01T07:08:26;4.75;;;1.10;;
73100;SDS011;61288;53.446;-2.266;2023-03-01T07:10:56;2.35;;;1.10;;
73100;SDS011;61288;53.446;-2.266;2023-03-01T07:13:22;2.65;;;1.05;;
73100;SDS011;61288;53.446;-2.266;2023-03-01T07:15:49;2.30;;;1.15;;
73100;SDS011;61288;53.446;-2.266;2023-03-01T07:18:14;6.05;;;1.67;;
73100;SDS011;61288;53.446;-2.266;2023-03-01T07:20:44;2.05;;;0.98;;
73100;SDS011;61288;53.446;-2.266;2023-03-01T07:23:21;6.38;;;1.35;;
73100;SDS011;61288;53.446;-2.266;2023-03-01T07:25:57;4.63;;;1.10;;
73100;SDS011;61288;53.446;-2.266;2023-03-01T07:28:33;3.47;;;1.00;;
73100;SDS011;61288;53.446;-2.266;2023-03-01T07:31:01;2.92;;;1.00;;
73100;SDS011;61288;53.446;-2.266;2023-03-01T07:33:28;4.07;;;1.17;;
73100;SDS011;61288;53.446;-2.266;2023-03-01T07:36:02;5.20;;;1.20;;
73100;SDS011;61288;53.446;-2.266;2023-03-01T07:38:29;8.18;;;1.67;;
73100;SDS011;61288;53.446;-2.266;2023-03-01T07:40:59;4.78;;;1.60;;
73100;SDS011;61288;53.446;-2.266;2023-03-01T07:43:31;3.15;;;1.30;;
73100;SDS011;61288;53.446;-2.266;2023-03-01T07:45:59;5.25;;;1.08;;
73100;SDS011;61288;53.446;-2.266;2023-03-01T07:48:26;5.70;;;1.30;;
73100;SDS011;61288;53.446;-2.266;2023-03-01T07:50:51;4.78;;;1.48;;
73100;SDS011;61288;53.446;-2.266;2023-03-01T07:53:17;6.40;;;1.63;;
73100;SDS011;61288;53.446;-2.266;2023-03-01T07:55:43;3.45;;;1.10;;
73100;SDS011;61288;53.446;-2.266;2023-03-01T07:58:12;2.25;;;1.00;;
73100;SDS011;61288;53.446;-2.266;2023-03-01T08:00:42;5.05;;;1.10;;
73100;SDS011;61288;53.446;-2.266;2023-03-01T08:03:09;5.80;;;1.35;;
73100;SDS011;61288;53.446;-2.266;2023-03-01T08:05:35;4.03;;;1.42;;
73100;SDS011;61288;53.446;-2.266;2023-03-01T08:08:01;5.53;;;1.20;;
73100;SDS011;61288;53.446;-2.266;2023-03-01T08:10:26;4.07;;;1.15;;
73100;SDS011;61288;53.446;-2.266;2023-03-01T08:12:52;5.72;;;1.40;;
73100;SDS011;61288;53.446;-2.266;2023-03-01T08:15:18;5.75;;;1.33;;
73100;SDS011;61288;53.446;-2.266;2023-03-01T08:17:44;2.67;;;1.27;;
73100;SDS011;61288;53.446;-2.266;2023-03-01T08:20:09;4.35;;;1.45;;
73100;SDS011;61288;53.446;-2.266;2023-03-01T08:22:37;6.55;;;1.40;;
73100;SDS011;61288;53.446;-2.266;2023-03-01T08:25:03;6.28;;;1.73;;
73100;SDS011;61288;53.446;-2.266;2023-03-01T08:27:28;6.00;;;1.42;;
73100;SDS011;61288;53.446;-2.266;2023-03-01T08:29:54;9.07;;;1.60;;
73100;SDS011;61288;53.446;-2.266;2023-03-01T08:32:19;5.70;;;1.60;;
73100;SDS011;61288;53.446;-2.266;2023-03-01T08:34:48;6.57;;;1.60;;
73100;SDS011;61288;53.446;-2.266;2023-03-01T08:37:16;6.13;;;1.40;;
73100;SDS011;61288;53.446;-2.266;2023-03-01T08:39:42;5.47;;;1.60;;
73100;SDS011;61288;53.446;-2.266;2023-03-01T08:42:10;6.80;;;1.60;;
73100;SDS011;61288;53.446;-2.266;2023-03-01T08:44:37;4.60;;;1.30;;
73100;SDS011;61288;53.446;-2.266;2023-03-01T08:47:04;4.05;;;1.33;;
73100;SDS011;61288;53.446;-2.266;2023-03-01T08:49:30;5.13;;;1.20;;
73100;SDS011;61288;53.446;-2.266;2023-03-01T08:51:57;6.53;;;1.52;;
73100;SDS011;61288;53.446;-2.266;2023-03-01T08:54:23;3.97;;;1.13;;
73100;SDS011;61288;53.446;-2.266;2023-03-01T08:56:48;3.88;;;1.38;;
73100;SDS011;61288;53.446;-2.266;2023-03-01T08:59:15;3.58;;;1.35;;
73100;SDS011;61288;53.446;-2.266;2023-03-01T09:01:42;5.72;;;1.40;;
73100;SDS011;61288;53.446;-2.266;2023-03-01T09:04:09;4.85;;;1.60;;
73100;SDS011;61288;53.446;-2.266;2023-03-01T09:06:36;5.43;;;1.60;;
73100;SDS011;61288;53.446;-2.266;2023-03-01T09:09:02;7.05;;;1.52;;
73100;SDS011;61288;53.446;-2.266;2023-03-01T09:11:29;5.75;;;1.70;;
73100;SDS011;61288;53.446;-2.266;2023-03-01T09:13:55;6.43;;;1.45;;
73100;SDS011;61288;53.446;-2.266;2023-03-01T09:16:21;5.10;;;1.63;;
73100;SDS011;61288;53.446;-2.266;2023-03-01T09:18:48;2.78;;;1.25;;
73100;SDS011;61288;53.446;-2.266;2023-03-01T09:21:16;4.50;;;1.42;;
73100;SDS011;61288;53.446;-2.266;2023-03-01T09:23:43;5.88;;;1.30;;
73100;SDS011;61288;53.446;-2.266;2023-03-01T09:26:11;3.40;;;1.20;;
73100;SDS011;61288;53.446;-2.266;2023-03-01T09:28:39;3.70;;;1.30;;
73100;SDS011;61288;53.446;-2.266;2023-03-01T09:31:09;5.95;;;1.40;;
73100;SDS011;61288;53.446;-2.266;2023-03-01T09:33:38;5.50;;;1.40;;
73100;SDS011;61288;53.446;-2.266;2023-03-01T09:36:06;4.32;;;1.27;;
73100;SDS011;61288;53.446;-2.266;2023-03-01T09:38:35;7.88;;;1.40;;
73100;SDS011;61288;53.446;-2.266;2023-03-01T09:41:00;4.20;;;1.40;;
73100;SDS011;61288;53.446;-2.266;2023-03-01T09:46:03;5.50;;;1.45;;
73100;SDS011;61288;53.446;-2.266;2023-03-01T09:48:33;5.20;;;1.30;;
73100;SDS011;61288;53.446;-2.266;2023-03-01T09:51:08;3.78;;;1.30;;
73100;SDS011;61288;53.446;-2.266;2023-03-01T09:53:37;6.82;;;1.23;;
73100;SDS011;61288;53.446;-2.266;2023-03-01T09:56:17;4.60;;;1.30;;
73100;SDS011;61288;53.446;-2.266;2023-03-01T09:58:49;3.38;;;1.30;;
73100;SDS011;61288;53.446;-2.266;2023-03-01T10:01:29;4.22;;;1.13;;
73100;SDS011;61288;53.446;-2.266;2023-03-01T10:09:41;5.32;;;1.02;;
73100;SDS011;61288;53.446;-2.266;2023-03-01T10:12:15;6.30;;;1.30;;
73100;SDS011;61288;53.446;-2.266;2023-03-01T10:17:41;3.80;;;1.15;;
73100;SDS011;61288;53.446;-2.266;2023-03-01T10:22:42;5.90;;;1.30;;
73100;SDS011;61288;53.446;-2.266;2023-03-01T10:25:12;8.32;;;1.25;;
73100;SDS011;61288;53.446;-2.266;2023-03-01T10:27:49;6.13;;;1.35;;
73100;SDS011;61288;53.446;-2.266;2023-03-01T10:30:32;5.28;;;1.35;;
73100;SDS011;61288;53.446;-2.266;2023-03-01T10:33:00;5.60;;;1.10;;
73100;SDS011;61288;53.446;-2.266;2023-03-01T10:35:29;5.28;;;1.30;;
73100;SDS011;61288;53.446;-2.266;2023-03-01T10:38:11;7.57;;;1.15;;
73100;SDS011;61288;53.446;-2.266;2023-03-01T10:40:50;3.97;;;1.10;;
73100;SDS011;61288;53.446;-2.266;2023-03-01T10:43:18;6.55;;;1.20;;
73100;SDS011;61288;53.446;-2.266;2023-03-01T10:45:45;9.52;;;1.42;;
73100;SDS011;61288;53.446;-2.266;2023-03-01T10:48:16;4.30;;;1.00;;
73100;SDS011;61288;53.446;-2.266;2023-03-01T10:50:43;3.92;;;1.10;;
73100;SDS011;61288;53.446;-2.266;2023-03-01T10:53:24;5.97;;;1.20;;
73100;SDS011;61288;53.446;-2.266;2023-03-01T10:58:37;5.60;;;1.00;;
73100;SDS011;61288;53.446;-2.266;2023-03-01T11:01:05;5.38;;;0.93;;
73100;SDS011;61288;53.446;-2.266;2023-03-01T11:06:30;3.03;;;0.95;;
73100;SDS011;61288;53.446;-2.266;2023-03-01T11:08:56;2.53;;;0.60;;
73100;SDS011;61288;53.446;-2.266;2023-03-01T11:11:32;2.80;;;0.77;;
73100;SDS011;61288;53.446;-2.266;2023-03-01T11:14:01;1.83;;;0.90;;
73100;SDS011;61288;53.446;-2.266;2023-03-01T11:16:35;2.60;;;1.10;;
73100;SDS011;61288;53.446;-2.266;2023-03-01T11:24:15;3.15;;;1.20;;
73100;SDS011;61288;53.446;-2.266;2023-03-01T11:26:44;3.38;;;1.10;;
73100;SDS011;61288;53.446;-2.266;2023-03-01T11:29:26;5.22;;;1.15;;
73100;SDS011;61288;53.446;-2.266;2023-03-01T11:31:58;6.50;;;1.10;;
73100;SDS011;61288;53.446;-2.266;2023-03-01T11:34:38;3.78;;;1.10;;
73100;SDS011;61288;53.446;-2.266;2023-03-01T11:37:10;3.63;;;1.45;;
73100;SDS011;61288;53.446;-2.266;2023-03-01T11:45:53;6.50;;;1.60;;
73100;SDS011;61288;53.446;-2.266;2023-03-01T11:50:58;2.60;;;1.00;;
73100;SDS011;61288;53.446;-2.266;2023-03-01T11:56:35;5.30;;;1.10;;
73100;SDS011;61288;53.446;-2.266;2023-03-01T12:12:31;3.58;;;0.80;;
73100;SDS011;61288;53.446;-2.266;2023-03-01T12:17:57;4.38;;;0.95;;
73100;SDS011;61288;53.446;-2.266;2023-03-01T12:20:32;2.50;;;0.80;;
73100;SDS011;61288;53.446;-2.266;2023-03-01T12:31:26;1.63;;;0.75;;
73100;SDS011;61288;53.446;-2.266;2023-03-01T12:34:51;5.15;;;1.00;;
73100;SDS011;61288;53.446;-2.266;2023-03-01T12:39:56;3.80;;;1.05;;
73100;SDS011;61288;53.446;-2.266;2023-03-01T12:51:11;3.88;;;1.17;;
73100;SDS011;61288;53.446;-2.266;2023-03-01T12:53:42;3.92;;;0.93;;
73100;SDS011;61288;53.446;-2.266;2023-03-01T12:56:13;4.03;;;0.90;;
73100;SDS011;61288;53.446;-2.266;2023-03-01T12:58:46;5.10;;;0.88;;
73100;SDS011;61288;53.446;-2.266;2023-03-01T13:17:47;3.45;;;1.02;;
73100;SDS011;61288;53.446;-2.266;2023-03-01T13:20:18;5.10;;;0.98;;
73100;SDS011;61288;53.446;-2.266;2023-03-01T13:22:59;2.80;;;1.20;;
73100;SDS011;61288;53.446;-2.266;2023-03-01T13:25:30;3.17;;;0.75;;
73100;SDS011;61288;53.446;-2.266;2023-03-01T13:31:07;5.38;;;1.20;;
73100;SDS011;61288;53.446;-2.266;2023-03-01T13:47:08;2.80;;;1.13;;
73100;SDS011;61288;53.446;-2.266;2023-03-01T13:52:41;2.88;;;1.25;;
73100;SDS011;61288;53.446;-2.266;2023-03-01T13:57:48;4.30;;;1.13;;
73100;SDS011;61288;53.446;-2.266;2023-03-01T14:03:08;3.03;;;1.15;;
73100;SDS011;61288;53.446;-2.266;2023-03-01T14:05:36;3.90;;;0.90;;
73100;SDS011;61288;53.446;-2.266;2023-03-01T14:08:04;1.20;;;0.63;;
73100;SDS011;61288;53.446;-2.266;2023-03-01T14:10:44;2.38;;;0.77;;
73100;SDS011;61288;53.446;-2.266;2023-03-01T14:18:36;1.55;;;0.90;;
73100;SDS011;61288;53.446;-2.266;2023-03-01T14:21:12;3.13;;;1.17;;
73100;SDS011;61288;53.446;-2.266;2023-03-01T14:23:39;2.15;;;0.80;;
73100;SDS011;61288;53.446;-2.266;2023-03-01T14:26:07;1.10;;;0.70;;
73100;SDS011;61288;53.446;-2.266;2023-03-01T14:28:33;1.08;;;0.65;;
73100;SDS011;61288;53.446;-2.266;2023-03-01T14:31:25;3.88;;;0.95;;
73100;SDS011;61288;53.446;-2.266;2023-03-01T14:34:03;2.45;;;1.00;;
73100;SDS011;61288;53.446;-2.266;2023-03-01T14:36:31;4.05;;;1.27;;
73100;SDS011;61288;53.446;-2.266;2023-03-01T14:39:00;1.63;;;0.80;;
73100;SDS011;61288;53.446;-2.266;2023-03-01T14:41:31;3.40;;;1.10;;
73100;SDS011;61288;53.446;-2.266;2023-03-01T14:44:02;3.65;;;1.10;;
73100;SDS011;61288;53.446;-2.266;2023-03-01T14:46:38;4.22;;;1.17;;
73100;SDS011;61288;53.446;-2.266;2023-03-01T14:51:34;3.97;;;1.10;;
73100;SDS011;61288;53.446;-2.266;2023-03-01T14:54:02;3.15;;;1.00;;
73100;SDS011;61288;53.446;-2.266;2023-03-01T14:56:28;3.15;;;1.05;;
73100;SDS011;61288;53.446;-2.266;2023-03-01T14:59:09;2.53;;;0.98;;
73100;SDS011;61288;53.446;-2.266;2023-03-01T15:01:34;2.97;;;0.90;;
73100;SDS011;61288;53.446;-2.266;2023-03-01T15:04:00;3.55;;;1.10;;
73100;SDS011;61288;53.446;-2.266;2023-03-01T15:06:27;4.32;;;1.00;;
73100;SDS011;61288;53.446;-2.266;2023-03-01T15:08:53;3.78;;;1.00;;
73100;SDS011;61288;53.446;-2.266;2023-03-01T15:11:31;4.82;;;1.10;;
73100;SDS011;61288;53.446;-2.266;2023-03-01T15:13:58;2.20;;;0.90;;
73100;SDS011;61288;53.446;-2.266;2023-03-01T15:16:33;1.73;;;0.70;;
73100;SDS011;61288;53.446;-2.266;2023-03-01T15:19:00;3.10;;;0.90;;
73100;SDS011;61288;53.446;-2.266;2023-03-01T15:21:30;3.90;;;1.30;;
73100;SDS011;61288;53.446;-2.266;2023-03-01T15:26:52;4.03;;;1.20;;
73100;SDS011;61288;53.446;-2.266;2023-03-01T15:29:26;3.40;;;1.25;;
73100;SDS011;61288;53.446;-2.266;2023-03-01T15:36:57;3.20;;;1.05;;
73100;SDS011;61288;53.446;-2.266;2023-03-01T15:42:35;1.30;;;0.75;;
73100;SDS011;61288;53.446;-2.266;2023-03-01T15:44:50;4.38;;;1.95;;
73100;SDS011;61288;53.446;-2.266;2023-03-01T15:47:33;4.22;;;1.30;;
73100;SDS011;61288;53.446;-2.266;2023-03-01T15:50:00;4.00;;;1.33;;
73100;SDS011;61288;53.446;-2.266;2023-03-01T15:52:28;3.92;;;1.35;;
73100;SDS011;61288;53.446;-2.266;2023-03-01T15:55:01;4.70;;;1.42;;
73100;SDS011;61288;53.446;-2.266;2023-03-01T15:57:28;5.80;;;1.52;;
73100;SDS011;61288;53.446;-2.266;2023-03-01T15:59:54;3.65;;;1.38;;
73100;SDS011;61288;53.446;-2.266;2023-03-01T16:02:20;2.72;;;1.20;;
73100;SDS011;61288;53.446;-2.266;2023-03-01T16:04:48;5.00;;;0.93;;
73100;SDS011;61288;53.446;-2.266;2023-03-01T16:07:14;7.55;;;1.52;;
73100;SDS011;61288;53.446;-2.266;2023-03-01T16:09:39;3.90;;;1.20;;
73100;SDS011;61288;53.446;-2.266;2023-03-01T16:12:08;3.35;;;1.02;;
73100;SDS011;61288;53.446;-2.266;2023-03-01T16:14:38;5.18;;;1.42;;
73100;SDS011;61288;53.446;-2.266;2023-03-01T16:17:04;2.13;;;1.15;;
73100;SDS011;61288;53.446;-2.266;2023-03-01T16:19:30;4.35;;;1.17;;
73100;SDS011;61288;53.446;-2.266;2023-03-01T16:21:55;2.85;;;1.10;;
73100;SDS011;61288;53.446;-2.266;2023-03-01T16:24:21;6.20;;;1.40;;
73100;SDS011;61288;53.446;-2.266;2023-03-01T16:26:46;5.88;;;1.40;;
73100;SDS011;61288;53.446;-2.266;2023-03-01T16:29:12;6.85;;;1.27;;
73100;SDS011;61288;53.446;-2.266;2023-03-01T16:31:37;3.72;;;1.25;;
73100;SDS011;61288;53.446;-2.266;2023-03-01T16:34:03;6.85;;;1.33;;
73100;SDS011;61288;53.446;-2.266;2023-03-01T16:36:28;5.00;;;1.10;;
73100;SDS011;61288;53.446;-2.266;2023-03-01T16:38:54;5.15;;;1.50;;
73100;SDS011;61288;53.446;-2.266;2023-03-01T16:41:22;6.65;;;1.23;;
73100;SDS011;61288;53.446;-2.266;2023-03-01T16:43:48;4.88;;;0.85;;
73100;SDS011;61288;53.446;-2.266;2023-03-01T16:46:16;6.47;;;1.45;;
73100;SDS011;61288;53.446;-2.266;2023-03-01T16:48:45;6.25;;;1.15;;
73100;SDS011;61288;53.446;-2.266;2023-03-01T16:51:11;4.40;;;1.35;;
73100;SDS011;61288;53.446;-2.266;2023-03-01T16:53:37;5.72;;;1.42;;
73100;SDS011;61288;53.446;-2.266;2023-03-01T16:56:07;2.35;;;1.23;;
73100;SDS011;61288;53.446;-2.266;2023-03-01T16:58:35;9.23;;;1.70;;
73100;SDS011;61288;53.446;-2.266;2023-03-01T17:01:03;5.72;;;1.50;;
73100;SDS011;61288;53.446;-2.266;2023-03-01T17:03:30;6.18;;;1.30;;
73100;SDS011;61288;53.446;-2.266;2023-03-01T17:05:56;5.07;;;1.30;;
73100;SDS011;61288;53.446;-2.266;2023-03-01T17:08:22;3.95;;;1.35;;
73100;SDS011;61288;53.446;-2.266;2023-03-01T17:10:48;4.07;;;1.33;;
73100;SDS011;61288;53.446;-2.266;2023-03-01T17:13:14;5.13;;;1.55;;
73100;SDS011;61288;53.446;-2.266;2023-03-01T17:15:40;5.53;;;1.17;;